Csl Argosy — C6UZ9 — position and weather

sailwx.info

Track history (hours):
 
Tides and Currents Weather Stations Pressure Air Temp Water Temp Dewpoint Dewpoint Depression Visibility Wind Speed Wind Dir Waves Ship Positions

Csl Argosy

Last reported at 2013-Sep-20 23:32 UTC. Time now 2014-Aug-31 10:34 UTC.
Position N 27°30' W 083°03'.
Warning: this ship's position is months out of date.

Length 244 m; draft 9.5 m.

Type: Cargo ship. MMSI: 308299000.

Date/timePositionNaut miles runAvg speedWind from/ knotsBaromVisibWave heightAir tempDewpointWater temp
2013-Sep-20 23:32N 27°30' W 083°03'1111.4
2013-Sep-20 22:33N 27°36' W 082°52'1312.6
2013-Sep-20 21:33N 27°38' W 082°38'1111.2
2013-Sep-20 20:34N 27°47' W 082°31'8 7.7
2013-Sep-20 19:29N 27°54' W 082°26'1 0.6
2013-Sep-20 18:29N 27°55' W 082°26'0 0.0
2013-Sep-20 17:29N 27°55' W 082°26'0 0.0
2013-Sep-20 16:29N 27°55' W 082°26'0 0.0
2013-Sep-20 15:29N 27°55' W 082°26'0 0.0
2013-Sep-20 14:29N 27°55' W 082°26'0 0.0
2013-Sep-20 13:29N 27°55' W 082°26'0 0.0
2013-Sep-20 12:29N 27°55' W 082°26'0 0.0
2013-Sep-20 11:29N 27°55' W 082°26'0 0.0
2013-Sep-20 10:29N 27°55' W 082°26'0 0.0
2013-Sep-20 09:29N 27°55' W 082°26'0 0.0
2013-Sep-20 08:29N 27°55' W 082°26'0 0.0
2013-Sep-20 07:29N 27°55' W 082°26'0 0.0
2013-Sep-20 06:29N 27°55' W 082°26'0 0.0
2013-Sep-20 05:29N 27°55' W 082°26'0 0.0
2013-Sep-20 04:29N 27°55' W 082°26'0 0.0
2013-Sep-20 03:29N 27°55' W 082°26'0 0.0
2013-Sep-20 02:29N 27°55' W 082°26'0 0.0
2013-Sep-20 01:29N 27°55' W 082°26'0 0.0
2013-Sep-20 00:29N 27°55' W 082°26'0 0.0
2013-Sep-19 23:29N 27°55' W 082°26'0 0.0
2013-Sep-19 22:29N 27°55' W 082°26'0 0.0
2013-Sep-19 21:29N 27°55' W 082°26'0 0.0
2013-Sep-19 20:29N 27°55' W 082°26'0 0.0
2013-Sep-19 19:29N 27°55' W 082°26'0 0.0
2013-Sep-19 18:29N 27°55' W 082°26'0 0.0
2013-Sep-19 17:29N 27°55' W 082°26'0 0.0
2013-Sep-19 16:29N 27°55' W 082°26'0 0.0
2013-Sep-19 15:29N 27°55' W 082°26'0 0.0
2013-Sep-19 14:29N 27°55' W 082°26'0 0.0
2013-Sep-19 13:29N 27°55' W 082°26'0 0.0
2013-Sep-19 12:29N 27°55' W 082°26'0 0.0
2013-Sep-19 11:29N 27°55' W 082°26'0 0.0
2013-Sep-19 10:29N 27°55' W 082°26'0 0.0
2013-Sep-19 09:29N 27°55' W 082°26'0 0.0
2013-Sep-19 08:29N 27°55' W 082°26'0 0.0
2013-Sep-19 07:29N 27°55' W 082°26'0 0.0
2013-Sep-19 06:29N 27°55' W 082°26'0 0.0
2013-Sep-19 05:29N 27°55' W 082°26'0 0.1
2013-Sep-19 04:33N 27°55' W 082°26'6 6.3
2013-Sep-19 03:33N 27°48' W 082°27'9 8.8
2013-Sep-19 02:33N 27°41' W 082°34'9 9.4
2013-Sep-19 01:33N 27°36' W 082°43'10 9.6
2013-Sep-19 00:33N 27°36' W 082°53'9 8.6
2013-Sep-18 23:34N 27°33' W 083°02'219 5.3
2013-Sep-17 06:05N 25°47' W 079°28'610.5
2013-Sep-17 05:33N 25°53' W 079°28'1110.5
2013-Sep-17 04:33N 26°03' W 079°26'1010.2
2013-Sep-17 03:33N 26°13' W 079°26'1010.3
2013-Sep-17 02:33N 26°23' W 079°25'2110.3
2013-Sep-17 00:33N 26°44' W 079°24'1310.5
2013-Sep-16 23:19N 26°57' W 079°23'  
Track history (hours):
 
Tides and Currents Weather Stations Pressure Air Temp Water Temp Dewpoint Dewpoint Depression Visibility Wind Speed Wind Dir Waves Ship Positions

Csl Argosy

Last reported at 2013-Sep-20 23:32 UTC. Time now 2014-Aug-31 10:34 UTC.
Position N 27°30' W 083°03'.
Warning: this ship's position is months out of date.

Length 244 m; draft 9.5 m.

Type: Cargo ship. MMSI: 308299000.

Date/timePositionNaut miles runAvg speedWind from/ knotsBaromVisibWave heightAir tempDewpointWater temp
2013-Sep-20 23:32N 27°30' W 083°03'1111.4
2013-Sep-20 22:33N 27°36' W 082°52'1312.6
2013-Sep-20 21:33N 27°38' W 082°38'1111.2
2013-Sep-20 20:34N 27°47' W 082°31'8 7.7
2013-Sep-20 19:29N 27°54' W 082°26'1 0.6
2013-Sep-20 18:29N 27°55' W 082°26'0 0.0
2013-Sep-20 17:29N 27°55' W 082°26'0 0.0
2013-Sep-20 16:29N 27°55' W 082°26'0 0.0
2013-Sep-20 15:29N 27°55' W 082°26'0 0.0
2013-Sep-20 14:29N 27°55' W 082°26'0 0.0
2013-Sep-20 13:29N 27°55' W 082°26'0 0.0
2013-Sep-20 12:29N 27°55' W 082°26'0 0.0
2013-Sep-20 11:29N 27°55' W 082°26'0 0.0
2013-Sep-20 10:29N 27°55' W 082°26'0 0.0
2013-Sep-20 09:29N 27°55' W 082°26'0 0.0
2013-Sep-20 08:29N 27°55' W 082°26'0 0.0
2013-Sep-20 07:29N 27°55' W 082°26'0 0.0
2013-Sep-20 06:29N 27°55' W 082°26'0 0.0
2013-Sep-20 05:29N 27°55' W 082°26'0 0.0
2013-Sep-20 04:29N 27°55' W 082°26'0 0.0
2013-Sep-20 03:29N 27°55' W 082°26'0 0.0
2013-Sep-20 02:29N 27°55' W 082°26'0 0.0
2013-Sep-20 01:29N 27°55' W 082°26'0 0.0
2013-Sep-20 00:29N 27°55' W 082°26'0 0.0
2013-Sep-19 23:29N 27°55' W 082°26'0 0.0
2013-Sep-19 22:29N 27°55' W 082°26'0 0.0
2013-Sep-19 21:29N 27°55' W 082°26'0 0.0
2013-Sep-19 20:29N 27°55' W 082°26'0 0.0
2013-Sep-19 19:29N 27°55' W 082°26'0 0.0
2013-Sep-19 18:29N 27°55' W 082°26'0 0.0
2013-Sep-19 17:29N 27°55' W 082°26'0 0.0
2013-Sep-19 16:29N 27°55' W 082°26'0 0.0
2013-Sep-19 15:29N 27°55' W 082°26'0 0.0
2013-Sep-19 14:29N 27°55' W 082°26'0 0.0
2013-Sep-19 13:29N 27°55' W 082°26'0 0.0
2013-Sep-19 12:29N 27°55' W 082°26'0 0.0
2013-Sep-19 11:29N 27°55' W 082°26'0 0.0
2013-Sep-19 10:29N 27°55' W 082°26'0 0.0
2013-Sep-19 09:29N 27°55' W 082°26'0 0.0
2013-Sep-19 08:29N 27°55' W 082°26'0 0.0
2013-Sep-19 07:29N 27°55' W 082°26'0 0.0
2013-Sep-19 06:29N 27°55' W 082°26'0 0.0
2013-Sep-19 05:29N 27°55' W 082°26'0 0.1
2013-Sep-19 04:33N 27°55' W 082°26'6 6.3
2013-Sep-19 03:33N 27°48' W 082°27'9 8.8
2013-Sep-19 02:33N 27°41' W 082°34'9 9.4
2013-Sep-19 01:33N 27°36' W 082°43'10 9.6
2013-Sep-19 00:33N 27°36' W 082°53'9 8.6
2013-Sep-18 23:34N 27°33' W 083°02'219 5.3
2013-Sep-17 06:05N 25°47' W 079°28'610.5
2013-Sep-17 05:33N 25°53' W 079°28'1110.5
2013-Sep-17 04:33N 26°03' W 079°26'1010.2
2013-Sep-17 03:33N 26°13' W 079°26'1010.3
2013-Sep-17 02:33N 26°23' W 079°25'2110.3
2013-Sep-17 00:33N 26°44' W 079°24'1310.5
2013-Sep-16 23:19N 26°57' W 079°23'  

Dump ship's entire track history